createdAt,value
2023-02-11T00:02:46.138Z,74.97
2023-02-11T00:07:49.756Z,75.33
2023-02-11T00:12:51.515Z,75.26
2023-02-11T00:17:53.775Z,75.77
2023-02-11T00:22:55.474Z,75.51
2023-02-11T00:27:57.511Z,74.46
2023-02-11T00:32:59.327Z,74.86
2023-02-11T00:38:01.014Z,74.28
2023-02-11T00:43:02.959Z,74.88
2023-02-11T00:48:04.671Z,74.44
2023-02-11T00:53:06.464Z,74.23
2023-02-11T00:58:08.241Z,74.61
2023-02-11T01:03:10.388Z,73.69
2023-02-11T01:08:12.287Z,74.29
2023-02-11T01:13:13.894Z,74.23
2023-02-11T01:18:15.560Z,74.23
2023-02-11T01:23:17.203Z,74.49
2023-02-11T01:28:27.733Z,74.79
2023-02-11T01:33:29.952Z,74.48
2023-02-11T01:38:32.052Z,74.25
2023-02-11T01:43:42.451Z,75.01
2023-02-11T01:48:47.784Z,75.44
2023-02-11T01:54:16.241Z,75.00
2023-02-11T01:59:27.666Z,74.81
2023-02-11T02:04:33.261Z,74.52
2023-02-11T02:09:40.418Z,74.35
2023-02-11T02:14:42.266Z,74.23
2023-02-11T02:20:33.103Z,73.37
2023-02-11T02:25:52.770Z,74.27
2023-02-11T02:31:15.464Z,73.26
2023-02-11T02:36:59.299Z,73.46
2023-02-11T02:42:01.722Z,72.39
2023-02-11T02:47:03.471Z,73.10
2023-02-11T02:52:10.667Z,72.09
2023-02-11T02:57:12.154Z,71.32
2023-02-11T03:02:39.622Z,71.44
2023-02-11T03:08:09.813Z,70.91
2023-02-11T03:13:13.340Z,70.15
2023-02-11T03:18:18.817Z,69.85
2023-02-11T03:23:35.330Z,70.27
2023-02-11T03:28:44.295Z,70.79
2023-02-11T03:34:10.072Z,70.11
2023-02-11T03:39:19.623Z,71.02
2023-02-11T03:44:25.295Z,70.84
2023-02-11T03:49:28.226Z,72.05
2023-02-11T03:54:30.949Z,71.79
2023-02-11T03:59:32.567Z,71.63
2023-02-11T04:04:34.166Z,71.85
2023-02-11T04:09:36.838Z,72.41
2023-02-11T04:14:38.870Z,71.95
2023-02-11T04:19:40.652Z,72.63
2023-02-11T04:24:44.012Z,72.68
2023-02-11T04:29:45.654Z,71.38
2023-02-11T04:34:47.522Z,72.11
2023-02-11T04:39:49.176Z,72.36
2023-02-11T04:44:50.849Z,73.05
2023-02-11T04:49:52.479Z,73.30
2023-02-11T04:54:54.110Z,73.71
2023-02-11T04:59:55.745Z,75.99
2023-02-11T05:04:57.342Z,80.21
2023-02-11T05:09:58.951Z,82.57
2023-02-11T05:15:00.622Z,83.37
2023-02-11T05:20:02.325Z,80.84
2023-02-11T05:25:04.206Z,81.10
2023-02-11T05:30:07.022Z,82.55
2023-02-11T05:35:09.671Z,82.36
2023-02-11T05:40:11.782Z,84.03
2023-02-11T05:45:13.483Z,85.71
2023-02-11T05:50:15.246Z,87.15
2023-02-11T05:55:16.878Z,88.02
2023-02-11T06:00:18.989Z,87.98
2023-02-11T06:05:20.711Z,87.31
2023-02-11T06:10:22.503Z,87.00
2023-02-11T06:15:24.093Z,86.97
2023-02-11T06:20:25.701Z,87.18
2023-02-11T06:25:27.415Z,86.11
2023-02-11T06:30:29.087Z,84.73
2023-02-11T06:35:30.911Z,85.08
2023-02-11T06:40:32.544Z,83.79
2023-02-11T06:45:34.325Z,83.61
2023-02-11T06:50:36.012Z,84.26
2023-02-11T06:55:37.636Z,85.06
2023-02-11T07:00:39.270Z,86.13
2023-02-11T07:05:43.849Z,89.00
2023-02-11T07:10:45.528Z,91.50
2023-02-11T07:15:47.210Z,93.88
2023-02-11T07:20:48.841Z,95.15
2023-02-11T07:25:50.865Z,95.86
2023-02-11T07:30:53.183Z,96.34
2023-02-11T07:35:54.890Z,96.45
2023-02-11T07:41:11.777Z,97.65
2023-02-11T07:46:19.716Z,97.39
2023-02-11T07:51:29.833Z,98.14
2023-02-11T07:56:32.864Z,96.76
2023-02-11T08:01:34.709Z,94.71
2023-02-11T08:06:41.310Z,93.77
2023-02-11T08:11:43.642Z,92.65
2023-02-11T08:16:45.378Z,90.99
2023-02-11T08:21:47.466Z,89.15
2023-02-11T08:26:49.670Z,87.05
2023-02-11T08:31:51.570Z,86.44
2023-02-11T08:36:53.989Z,86.39
2023-02-11T08:41:56.878Z,86.69
2023-02-11T08:46:58.571Z,85.31
2023-02-11T08:52:04.203Z,83.89
2023-02-11T08:57:05.818Z,83.27
2023-02-11T09:02:12.592Z,83.39
2023-02-11T09:07:14.389Z,83.43
2023-02-11T09:12:16.041Z,82.89
2023-02-11T09:17:17.796Z,83.77
2023-02-11T09:22:19.432Z,83.95
2023-02-11T09:27:21.081Z,83.98
2023-02-11T09:32:22.673Z,84.61
2023-02-11T09:37:24.285Z,84.76
2023-02-11T09:42:39.015Z,85.22
2023-02-11T09:47:59.753Z,85.78
2023-02-11T09:53:17.937Z,85.90
2023-02-11T09:58:26.387Z,85.68
2023-02-11T10:03:49.795Z,86.07
2023-02-11T10:09:01.715Z,85.55
2023-02-11T10:14:41.050Z,85.16
2023-02-11T10:20:16.488Z,84.60
2023-02-11T10:25:26.539Z,83.76
2023-02-11T10:30:37.249Z,83.15
2023-02-11T10:35:39.048Z,83.28
2023-02-11T10:40:40.783Z,83.19
2023-02-11T10:45:45.344Z,83.06
2023-02-11T10:50:47.039Z,82.35
2023-02-11T10:55:54.742Z,82.53
2023-02-11T11:00:59.663Z,82.46
2023-02-11T11:06:04.301Z,82.65
2023-02-11T11:11:09.030Z,82.65
2023-02-11T11:16:13.893Z,83.15
2023-02-11T11:21:22.628Z,82.67
2023-02-11T11:26:29.581Z,82.21
2023-02-11T11:31:45.275Z,83.02
2023-02-11T11:36:48.011Z,82.77
2023-02-11T11:41:52.702Z,82.66
2023-02-11T11:47:22.658Z,82.65
2023-02-11T11:52:40.590Z,82.61
2023-02-11T11:57:42.307Z,82.28
2023-02-11T12:03:22.187Z,82.43
2023-02-11T12:08:45.287Z,83.00
2023-02-11T12:14:06.830Z,83.35
2023-02-11T12:19:25.538Z,84.08
2023-02-11T12:25:26.319Z,84.32
2023-02-11T12:30:54.588Z,84.75
2023-02-11T12:36:20.686Z,86.53
2023-02-11T12:41:45.598Z,86.98
2023-02-11T12:47:03.900Z,88.07
2023-02-11T12:52:18.396Z,88.87
2023-02-11T12:57:26.549Z,89.80
2023-02-11T13:02:58.989Z,89.74
2023-02-11T13:08:21.064Z,89.34
2023-02-11T13:13:28.508Z,89.02
2023-02-11T13:18:44.089Z,89.78
2023-02-11T13:23:48.774Z,89.41
2023-02-11T13:29:13.588Z,90.10
2023-02-11T13:34:54.218Z,89.80
2023-02-11T13:40:21.285Z,89.86
2023-02-11T13:45:22.756Z,89.09
2023-02-11T13:50:27.097Z,89.91
2023-02-11T13:55:30.516Z,90.13
2023-02-11T14:00:35.179Z,90.49
2023-02-11T14:05:55.572Z,90.23
2023-02-11T14:11:03.282Z,90.48
2023-02-11T14:16:13.622Z,90.54
2023-02-11T14:21:32.467Z,88.92
2023-02-11T14:26:40.144Z,88.53
2023-02-11T14:32:04.671Z,88.73
2023-02-11T14:37:50.464Z,89.97
2023-02-11T14:42:54.817Z,88.94
2023-02-11T14:48:08.353Z,88.84
2023-02-11T14:53:17.050Z,88.68
2023-02-11T14:58:23.077Z,88.74
2023-02-11T15:03:41.168Z,88.88
2023-02-11T15:09:03.579Z,89.30
2023-02-11T15:14:23.268Z,89.60
2023-02-11T15:19:33.061Z,90.20
2023-02-11T15:24:35.943Z,90.08
2023-02-11T15:29:40.925Z,89.84
2023-02-11T15:34:44.213Z,89.41
2023-02-11T15:39:46.097Z,89.54
2023-02-11T15:44:56.359Z,90.14
2023-02-11T15:49:58.974Z,92.06
2023-02-11T15:55:02.850Z,94.49
2023-02-11T16:00:07.175Z,95.37
2023-02-11T16:05:35.837Z,95.35
2023-02-11T16:10:38.858Z,96.50
2023-02-11T16:15:51.023Z,96.15
2023-02-11T16:20:53.682Z,97.65
2023-02-11T16:26:21.552Z,98.29
2023-02-11T16:31:23.468Z,99.89
2023-02-11T16:36:25.558Z,100.00
2023-02-11T16:41:27.334Z,100.00
2023-02-11T16:46:30.684Z,100.00
2023-02-11T16:51:32.297Z,100.00
2023-02-11T16:56:33.955Z,100.00
2023-02-11T17:01:38.397Z,100.00
2023-02-11T17:06:40.041Z,100.00
2023-02-11T17:11:41.692Z,100.00
2023-02-11T17:16:45.362Z,100.00
2023-02-11T17:21:49.571Z,100.00
2023-02-11T17:26:51.317Z,100.00
2023-02-11T17:31:53.801Z,100.00
2023-02-11T17:36:55.819Z,100.00
2023-02-11T17:41:57.768Z,100.00
2023-02-11T17:46:59.438Z,100.00
2023-02-11T17:52:01.199Z,100.00
2023-02-11T17:57:02.874Z,100.00
2023-02-11T18:02:05.210Z,100.00
2023-02-11T18:07:07.455Z,100.00
2023-02-11T18:12:10.883Z,100.00
2023-02-11T18:17:15.753Z,100.00
2023-02-11T18:22:17.990Z,100.00
2023-02-11T18:27:20.707Z,100.00
2023-02-11T18:32:22.422Z,100.00
2023-02-11T18:37:24.211Z,100.00
2023-02-11T18:42:25.989Z,100.00
2023-02-11T18:47:27.889Z,100.00
2023-02-11T18:52:31.264Z,100.00
2023-02-11T18:57:32.938Z,100.00
2023-02-11T19:02:34.572Z,100.00
2023-02-11T19:07:36.224Z,100.00
2023-02-11T19:12:39.243Z,100.00
2023-02-11T19:17:40.913Z,100.00
2023-02-11T19:22:42.758Z,100.00
2023-02-11T19:27:44.385Z,100.00
2023-02-11T19:32:46.110Z,100.00
2023-02-11T19:37:47.808Z,100.00
2023-02-11T19:42:49.508Z,100.00
2023-02-11T19:47:55.253Z,100.00
2023-02-11T19:52:56.922Z,100.00
2023-02-11T19:57:58.592Z,100.00
2023-02-11T20:03:00.308Z,100.00
2023-02-11T20:08:02.032Z,100.00
2023-02-11T20:13:03.975Z,100.00
2023-02-11T20:18:05.756Z,100.00
2023-02-11T20:23:07.424Z,100.00
2023-02-11T20:28:09.121Z,100.00
2023-02-11T20:33:20.541Z,100.00
2023-02-11T20:38:22.264Z,100.00
2023-02-11T20:43:23.909Z,100.00
2023-02-11T20:48:25.549Z,100.00
2023-02-11T20:53:27.204Z,100.00
2023-02-11T20:58:28.966Z,100.00
2023-02-11T21:03:30.730Z,100.00
2023-02-11T21:08:32.443Z,100.00
2023-02-11T21:13:34.325Z,100.00
2023-02-11T21:18:36.652Z,100.00
2023-02-11T21:23:39.820Z,100.00
2023-02-11T21:28:41.710Z,100.00
2023-02-11T21:33:43.474Z,100.00
2023-02-11T21:38:45.218Z,100.00
2023-02-11T21:43:46.900Z,100.00
2023-02-11T21:48:49.087Z,100.00
2023-02-11T21:53:59.612Z,100.00
2023-02-11T21:59:01.465Z,100.00
2023-02-11T22:04:04.005Z,100.00
2023-02-11T22:09:08.246Z,100.00
2023-02-11T22:14:09.984Z,100.00
2023-02-11T22:19:11.736Z,100.00
2023-02-11T22:24:13.581Z,100.00
2023-02-11T22:29:15.216Z,100.00
2023-02-11T22:34:16.910Z,100.00
2023-02-11T22:39:18.633Z,100.00
2023-02-11T22:44:21.528Z,100.00
2023-02-11T22:49:23.324Z,100.00
2023-02-11T22:54:25.590Z,100.00
2023-02-11T22:59:27.278Z,100.00
2023-02-11T23:04:29.004Z,100.00
2023-02-11T23:09:30.677Z,100.00
2023-02-11T23:14:32.408Z,100.00
2023-02-11T23:19:34.073Z,100.00
2023-02-11T23:24:37.023Z,100.00
2023-02-11T23:29:38.695Z,100.00
2023-02-11T23:34:40.439Z,100.00
2023-02-11T23:39:42.109Z,100.00
2023-02-11T23:44:43.752Z,100.00
2023-02-11T23:49:45.432Z,100.00
2023-02-11T23:54:48.232Z,100.00
2023-02-11T23:59:50.458Z,100.00
